Nearby METAR Reports

 

KMRB - Martinsburg, West Virginia, USA
Distance from station: NNW 9mi, 14km
Updated: 01/21/2019 1:53am
Partly cloudy
Partly cloudy
 Wind from NW
Wind: NW 16 mph , 26 km/h, Gust: 30 mph , 48 km/h
Temperature: 10°F , -12°C
Wind Chill: -7°F , -22°C
Dew Point: -6°F , -21°C
Humidity: 47%
Barometer: 30.11 inHg , 1019.6 hPa
Clouds: Partly cloudy
Visibility: 10 miles , 16 km
Cloud details: Partly cloudy 4800 ft
2019/01/21 06:53 KMRB 210653Z AUTO 31014G26KT 10SM SCT048 M12/M21 A3011 RMK AO2 PK WND 32029/0606 SLP206 T11171206
KOKV - Winchester Rgnl, Virginia, USA
Distance from station: SW 17mi, 28km
Updated: 01/21/2019 1:55am
Overcast
Overcast
 Wind from NW
Wind: NW 21 mph , 33 km/h, Gust: 28 mph , 44 km/h
Temperature: 12°F , -11°C
Wind Chill: -7°F , -22°C
Dew Point: -0°F , -18°C
Humidity: 57%
Barometer: 30.12 inHg , 1020 hPa
Clouds: Overcast
Visibility: 10 miles , 16 km
Cloud details: Partly cloudy 3700 ft
Overcast 4400 ft
2019/01/21 06:55 KOKV 210655Z AUTO 32018G24KT 10SM SCT037 OVC044 M11/M18 A3012 RMK AO2
 
KJYO - Leesburg/Godfrey, Virginia, USA
Distance from station: SE 23mi, 38km
Updated: 01/21/2019 1:55am
Clear
Clear
 Wind from NW
Wind: NW 26 mph , 43 km/h, Gust: 36 mph , 57 km/h
Temperature: 16°F , -9°C
Wind Chill: -3°F , -19°C
Dew Point: 3°F , -16°C
Humidity: 57%
Barometer: 30.10 inHg , 1019.3 hPa
Clouds: Clear
Visibility: 10 miles , 16 km
2019/01/21 06:55 KJYO 210655Z AUTO 32023G31KT 10SM CLR M09/M16 A3010 RMK AO2
KFDK - Frederick, Maryland, USA
Distance from station: ENE 30mi, 48km
Updated: 01/21/2019 2:00am
Clear
Clear
 Wind from WNW
Wind: WNW 17 mph , 28 km/h, Gust: 25 mph , 41 km/h
Temperature: 14°F , -10°C
Wind Chill: -2°F , -19°C
Dew Point: -2°F , -19°C
Humidity: 48%
Barometer: 30.13 inHg , 1020.3 hPa
Clouds: Clear
Visibility: 10 miles , 16 km
2019/01/21 07:00 KFDK 210700Z AUTO 29015G22KT 10SM CLR M10/M19 A3013 RMK AO2
 
KHGR - Hagerstown, Maryland, USA
Distance from station: NNE 30mi, 48km
Updated: 01/21/2019 1:53am
Clear
Clear
 Wind from WNW
Wind: WNW 25 mph , 41 km/h, Gust: 35 mph , 56 km/h
Temperature: 10°F , -12°C
Wind Chill: -11°F , -24°C
Dew Point: -6°F , -21°C
Humidity: 47%
Barometer: 30.07 inHg , 1018.3 hPa
Clouds: Clear
Visibility: 10 miles , 16 km
2019/01/21 06:53 KHGR 210653Z AUTO 30022G30KT 10SM CLR M12/M21 A3007 RMK AO2 PK WND 29032/0609 SLP204 T11221211
KIAD - Wash Dc/Dulles, Virginia, USA
Distance from station: SE 34mi, 55km
Updated: 01/21/2019 1:52am
Partly cloudy
Partly cloudy
 Wind from NW
Wind: NW 17 mph , 28 km/h, Gust: 26 mph , 43 km/h
Temperature: 14°F , -10°C
Wind Chill: -2°F , -19°C
Dew Point: -0°F , -18°C
Humidity: 52%
Barometer: 30.10 inHg , 1019.3 hPa
Clouds: Partly cloudy
Visibility: 10 miles , 16 km
Cloud details: Partly cloudy 5000 ft
2019/01/21 06:52 KIAD 210652Z 31015G23KT 10SM SCT050 M10/M18 A3010 RMK AO2 PK WND 30039/0555 SLP197 T11001183 $
 
KRSP - Nsf Thurmont, Maryland, USA
Distance from station: NE 34mi, 55km
Updated: 11/15/2018 8:54am
NOT Current
Snow, Freezing, Fog, Overcast
Snow, Freezing, Fog, Overcast
 Wind from ESE
Wind: ESE 9 mph , 15 km/h, Gust: 17 mph , 28 km/h
Temperature: 23°F , -5°C
Wind Chill: 13°F , -11°C
Dew Point: 21°F , -6°C
Humidity: 93%
Barometer: 30.45 inHg , 1031.2 hPa
Summary: Snow, Freezing, Fog
Clouds: Overcast
Visibility: 1/4 mile , 2 km
Cloud details: Overcast 500 ft
2018/11/15 13:54 KRSP 151354Z AUTO 11008G15KT 1/4SM SN FZFG VV005 M05/M06 A3045 RMK AO2 SLP340 P0018 T10501056 $
KGAI - Gaithersburg, Maryland, USA
Distance from station: E 40mi, 64km
Updated: 01/21/2019 1:56am
Clear
Clear
 Wind from NW
Wind: NW 18 mph , 30 km/h, Gust: 31 mph , 50 km/h
Temperature: 10°F , -12°C
Wind Chill: -8°F , -22°C
Dew Point: -2°F , -19°C
Humidity: 56%
Barometer: 30.07 inHg , 1018.3 hPa
Clouds: Clear
Visibility: 10 miles , 16 km
2019/01/21 06:56 KGAI 210656Z AUTO 31016G27KT 10SM CLR M12/M19 A3007 RMK AO2 PK WND 29037/0626 SLP213 T11171189 FZRANO
 
KRYT - Fountain Dale, Pennsylvania, USA
Distance from station: NE 40mi, 64km
Updated: 11/13/2017 7:53am
NOT Current
Mist, Overcast
Mist, Overcast
 Wind from calm
Wind: Calm
Temperature: 37°F , 3°C
Dew Point: 34°F , 1°C
Humidity: 87%
Barometer: 30.31 inHg , 1026.4 hPa
Summary: Mist
Clouds: Overcast
Visibility: 5 miles , 8 km
Cloud details: Overcast 700 ft
2017/11/13 12:53 KRYT 131253Z AUTO 00000KT 5SM BR OVC007 03/01 A3031 RMK AO2 SLP275 T00280011 TSNO $
KHEF - Manassas Muni, Virginia, USA
Distance from station: SSE 44mi, 72km
Updated: 01/21/2019 1:56am
Mostly cloudy
Mostly cloudy
 Wind from NW
Wind: NW 23 mph , 37 km/h, Gust: 29 mph , 46 km/h
Temperature: 16°F , -9°C
Wind Chill: -2°F , -19°C
Dew Point: 1°F , -17°C
Humidity: 53%
Barometer: 30.12 inHg , 1020 hPa
Clouds: Mostly cloudy
Visibility: 10 miles , 16 km
Cloud details: Mostly cloudy 4600 ft
2019/01/21 06:56 KHEF 210656Z AUTO 31020G25KT 10SM BKN046 M09/M17 A3012 RMK AO2 PK WND 32026/0626 SLP212 T10941167 PNO $
 
KHWY - Warrenton, Virginia, USA
Distance from station: SSE 50mi, 80km
Updated: 01/21/2019 1:55am
Clear
Clear
 Wind from NW
Wind: NW 15 mph , 24 km/h, Gust: 21 mph , 33 km/h
Temperature: 18°F , -8°C
Wind Chill: 4°F , -16°C
Dew Point: -0°F , -18°C
Humidity: 45%
Barometer: 30.11 inHg , 1019.6 hPa
Clouds: Clear
Visibility: 10 miles , 16 km
2019/01/21 06:55 KHWY 210655Z AUTO 31013G18KT 10SM CLR M08/M18 A3011 RMK AO2 T10831181